Saint Cloud, Florida
Current Conditions -  °F | °C
As of 9:50 PM on Tuesday 21 Oct 2014 (Local Time) from KISM Reporting Station
Clear Clear  
Wind Chill: 73°   Ceiling: Unl
Heat Index: 73°   Visibility: 10mi
Dew Point: 72°   Wind: 0mph
Humidity: 94%   Direction: NA
Pressure: 29.96"   Gusts: NA
Location:  28.25°N, 81.28°W
Report Text: KISM 220150Z 00000KT 10SM SKC 23/22 A2996 RMK LAST
Loading
Personal Weather Stations






























Interactive Weather Map
Tropical Storm Tracking
New forecast layout! Learn more

10-Day Weather Forecast

Advertisements
Track Severe Weather on mobile